sensor_id;sensor_type;location;lat;lon;timestamp;P1;durP1;ratioP1;P2;durP2;ratioP2
70049;SDS011;57391;51.306;22.680;2023-09-18T00:00:34;9.80;;;7.10;;
70049;SDS011;57391;51.306;22.680;2023-09-18T00:03:22;9.70;;;6.80;;
70049;SDS011;57391;51.306;22.680;2023-09-18T00:05:52;11.20;;;7.20;;
70049;SDS011;57391;51.306;22.680;2023-09-18T00:08:19;9.70;;;7.10;;
70049;SDS011;57391;51.306;22.680;2023-09-18T00:10:48;10.20;;;7.00;;
70049;SDS011;57391;51.306;22.680;2023-09-18T00:13:17;9.70;;;7.00;;
70049;SDS011;57391;51.306;22.680;2023-09-18T00:15:44;9.40;;;6.00;;
70049;SDS011;57391;51.306;22.680;2023-09-18T00:18:14;8.70;;;5.70;;
70049;SDS011;57391;51.306;22.680;2023-09-18T00:20:42;10.60;;;7.50;;
70049;SDS011;57391;51.306;22.680;2023-09-18T00:23:10;9.00;;;5.30;;
70049;SDS011;57391;51.306;22.680;2023-09-18T00:25:37;8.70;;;6.30;;
70049;SDS011;57391;51.306;22.680;2023-09-18T00:28:04;10.00;;;6.80;;
70049;SDS011;57391;51.306;22.680;2023-09-18T00:30:31;9.60;;;6.80;;
70049;SDS011;57391;51.306;22.680;2023-09-18T00:32:58;9.60;;;6.80;;
70049;SDS011;57391;51.306;22.680;2023-09-18T00:35:25;8.90;;;6.50;;
70049;SDS011;57391;51.306;22.680;2023-09-18T00:37:52;9.20;;;6.50;;
70049;SDS011;57391;51.306;22.680;2023-09-18T00:40:19;10.30;;;7.30;;
70049;SDS011;57391;51.306;22.680;2023-09-18T00:42:46;11.90;;;7.50;;
70049;SDS011;57391;51.306;22.680;2023-09-18T00:45:14;11.80;;;7.80;;
70049;SDS011;57391;51.306;22.680;2023-09-18T00:47:41;13.80;;;7.80;;
70049;SDS011;57391;51.306;22.680;2023-09-18T00:50:09;12.00;;;7.90;;
70049;SDS011;57391;51.306;22.680;2023-09-18T00:52:40;10.80;;;7.70;;
70049;SDS011;57391;51.306;22.680;2023-09-18T00:55:09;10.40;;;7.40;;
70049;SDS011;57391;51.306;22.680;2023-09-18T00:57:36;11.90;;;7.40;;
70049;SDS011;57391;51.306;22.680;2023-09-18T01:00:04;9.60;;;6.90;;
70049;SDS011;57391;51.306;22.680;2023-09-18T01:02:32;10.50;;;7.20;;
70049;SDS011;57391;51.306;22.680;2023-09-18T01:04:59;10.90;;;7.50;;
70049;SDS011;57391;51.306;22.680;2023-09-18T01:07:26;10.80;;;7.90;;
70049;SDS011;57391;51.306;22.680;2023-09-18T01:09:54;11.50;;;7.40;;
70049;SDS011;57391;51.306;22.680;2023-09-18T01:12:36;12.20;;;7.30;;
70049;SDS011;57391;51.306;22.680;2023-09-18T01:15:33;11.80;;;7.80;;
70049;SDS011;57391;51.306;22.680;2023-09-18T01:18:04;10.80;;;8.10;;
70049;SDS011;57391;51.306;22.680;2023-09-18T01:20:31;11.40;;;7.70;;
70049;SDS011;57391;51.306;22.680;2023-09-18T01:22:58;10.80;;;8.20;;
70049;SDS011;57391;51.306;22.680;2023-09-18T01:25:24;11.30;;;8.10;;
70049;SDS011;57391;51.306;22.680;2023-09-18T01:27:51;11.60;;;8.10;;
70049;SDS011;57391;51.306;22.680;2023-09-18T01:30:18;13.70;;;8.50;;
70049;SDS011;57391;51.306;22.680;2023-09-18T01:32:45;12.30;;;7.80;;
70049;SDS011;57391;51.306;22.680;2023-09-18T01:35:14;11.60;;;7.80;;
70049;SDS011;57391;51.306;22.680;2023-09-18T01:37:43;12.00;;;7.80;;
70049;SDS011;57391;51.306;22.680;2023-09-18T01:40:11;11.00;;;7.40;;
70049;SDS011;57391;51.306;22.680;2023-09-18T01:42:39;12.50;;;7.70;;
70049;SDS011;57391;51.306;22.680;2023-09-18T01:45:07;11.40;;;8.20;;
70049;SDS011;57391;51.306;22.680;2023-09-18T01:47:34;12.30;;;6.40;;
70049;SDS011;57391;51.306;22.680;2023-09-18T01:50:04;9.60;;;6.30;;
70049;SDS011;57391;51.306;22.680;2023-09-18T01:52:34;9.20;;;6.40;;
70049;SDS011;57391;51.306;22.680;2023-09-18T01:55:04;10.50;;;6.90;;
70049;SDS011;57391;51.306;22.680;2023-09-18T01:57:31;11.60;;;6.80;;
70049;SDS011;57391;51.306;22.680;2023-09-18T01:59:58;10.40;;;6.90;;
70049;SDS011;57391;51.306;22.680;2023-09-18T02:02:25;11.60;;;7.80;;
70049;SDS011;57391;51.306;22.680;2023-09-18T02:04:52;11.50;;;7.80;;
70049;SDS011;57391;51.306;22.680;2023-09-18T02:07:19;12.30;;;7.60;;
70049;SDS011;57391;51.306;22.680;2023-09-18T02:09:45;12.40;;;7.60;;
70049;SDS011;57391;51.306;22.680;2023-09-18T02:12:12;10.90;;;7.70;;
70049;SDS011;57391;51.306;22.680;2023-09-18T02:14:44;11.20;;;7.30;;
70049;SDS011;57391;51.306;22.680;2023-09-18T02:17:12;10.80;;;7.30;;
70049;SDS011;57391;51.306;22.680;2023-09-18T02:19:38;10.20;;;6.80;;
70049;SDS011;57391;51.306;22.680;2023-09-18T02:22:05;10.60;;;7.50;;
70049;SDS011;57391;51.306;22.680;2023-09-18T02:24:33;12.60;;;8.30;;
70049;SDS011;57391;51.306;22.680;2023-09-18T02:26:59;11.40;;;7.70;;
70049;SDS011;57391;51.306;22.680;2023-09-18T02:29:26;10.10;;;7.50;;
70049;SDS011;57391;51.306;22.680;2023-09-18T02:31:55;11.20;;;7.20;;
70049;SDS011;57391;51.306;22.680;2023-09-18T02:34:22;8.30;;;5.80;;
70049;SDS011;57391;51.306;22.680;2023-09-18T02:36:49;9.40;;;6.40;;
70049;SDS011;57391;51.306;22.680;2023-09-18T02:39:16;10.00;;;6.30;;
70049;SDS011;57391;51.306;22.680;2023-09-18T02:41:42;9.60;;;6.40;;
70049;SDS011;57391;51.306;22.680;2023-09-18T02:44:09;10.30;;;6.60;;
70049;SDS011;57391;51.306;22.680;2023-09-18T02:46:37;10.10;;;6.90;;
70049;SDS011;57391;51.306;22.680;2023-09-18T02:49:05;11.50;;;6.90;;
70049;SDS011;57391;51.306;22.680;2023-09-18T02:51:31;8.10;;;5.60;;
70049;SDS011;57391;51.306;22.680;2023-09-18T02:53:58;9.80;;;6.20;;
70049;SDS011;57391;51.306;22.680;2023-09-18T02:56:25;8.10;;;5.90;;
70049;SDS011;57391;51.306;22.680;2023-09-18T02:58:52;9.60;;;6.40;;
70049;SDS011;57391;51.306;22.680;2023-09-18T03:01:19;10.40;;;6.80;;
70049;SDS011;57391;51.306;22.680;2023-09-18T03:03:46;11.60;;;6.70;;
70049;SDS011;57391;51.306;22.680;2023-09-18T03:06:13;11.20;;;6.40;;
70049;SDS011;57391;51.306;22.680;2023-09-18T03:08:40;9.90;;;6.90;;
70049;SDS011;57391;51.306;22.680;2023-09-18T03:11:11;10.30;;;6.50;;
70049;SDS011;57391;51.306;22.680;2023-09-18T03:13:46;10.80;;;7.10;;
70049;SDS011;57391;51.306;22.680;2023-09-18T03:16:14;10.60;;;6.80;;
70049;SDS011;57391;51.306;22.680;2023-09-18T03:18:41;9.70;;;5.70;;
70049;SDS011;57391;51.306;22.680;2023-09-18T03:26:32;9.80;;;6.90;;
70049;SDS011;57391;51.306;22.680;2023-09-18T03:29:00;9.60;;;6.80;;
70049;SDS011;57391;51.306;22.680;2023-09-18T03:31:27;10.70;;;6.70;;
70049;SDS011;57391;51.306;22.680;2023-09-18T03:33:57;10.90;;;6.50;;
70049;SDS011;57391;51.306;22.680;2023-09-18T03:36:24;9.90;;;5.80;;
70049;SDS011;57391;51.306;22.680;2023-09-18T03:38:51;9.70;;;6.60;;
70049;SDS011;57391;51.306;22.680;2023-09-18T03:41:18;9.70;;;6.60;;
70049;SDS011;57391;51.306;22.680;2023-09-18T03:43:45;10.60;;;6.80;;
70049;SDS011;57391;51.306;22.680;2023-09-18T03:46:11;10.80;;;6.70;;
70049;SDS011;57391;51.306;22.680;2023-09-18T03:48:43;10.30;;;6.50;;
70049;SDS011;57391;51.306;22.680;2023-09-18T03:51:10;10.10;;;6.50;;
70049;SDS011;57391;51.306;22.680;2023-09-18T03:53:42;9.80;;;6.50;;
70049;SDS011;57391;51.306;22.680;2023-09-18T03:56:09;8.80;;;6.40;;
70049;SDS011;57391;51.306;22.680;2023-09-18T03:58:37;10.30;;;6.30;;
70049;SDS011;57391;51.306;22.680;2023-09-18T04:01:04;9.90;;;6.00;;
70049;SDS011;57391;51.306;22.680;2023-09-18T04:03:30;10.40;;;6.10;;
70049;SDS011;57391;51.306;22.680;2023-09-18T04:05:58;9.90;;;6.40;;
70049;SDS011;57391;51.306;22.680;2023-09-18T04:08:25;8.40;;;5.60;;
70049;SDS011;57391;51.306;22.680;2023-09-18T04:10:52;9.50;;;5.80;;
70049;SDS011;57391;51.306;22.680;2023-09-18T04:13:22;9.20;;;6.10;;
70049;SDS011;57391;51.306;22.680;2023-09-18T04:15:49;7.60;;;5.10;;
70049;SDS011;57391;51.306;22.680;2023-09-18T04:18:16;8.00;;;5.30;;
70049;SDS011;57391;51.306;22.680;2023-09-18T04:20:42;7.80;;;5.20;;
70049;SDS011;57391;51.306;22.680;2023-09-18T04:23:25;7.10;;;4.70;;
70049;SDS011;57391;51.306;22.680;2023-09-18T04:25:54;9.80;;;5.80;;
70049;SDS011;57391;51.306;22.680;2023-09-18T04:28:22;7.80;;;5.30;;
70049;SDS011;57391;51.306;22.680;2023-09-18T04:30:49;7.00;;;5.00;;
70049;SDS011;57391;51.306;22.680;2023-09-18T04:33:16;7.70;;;5.30;;
70049;SDS011;57391;51.306;22.680;2023-09-18T04:35:44;6.70;;;5.00;;
70049;SDS011;57391;51.306;22.680;2023-09-18T04:38:11;9.50;;;4.90;;
70049;SDS011;57391;51.306;22.680;2023-09-18T04:40:38;8.30;;;5.10;;
70049;SDS011;57391;51.306;22.680;2023-09-18T04:43:08;8.80;;;5.90;;
70049;SDS011;57391;51.306;22.680;2023-09-18T04:45:35;8.90;;;5.40;;
70049;SDS011;57391;51.306;22.680;2023-09-18T04:48:02;9.90;;;6.50;;
70049;SDS011;57391;51.306;22.680;2023-09-18T04:50:32;9.50;;;5.70;;
70049;SDS011;57391;51.306;22.680;2023-09-18T04:53:00;7.40;;;5.20;;
70049;SDS011;57391;51.306;22.680;2023-09-18T04:55:28;9.10;;;5.50;;
70049;SDS011;57391;51.306;22.680;2023-09-18T04:57:54;8.40;;;5.00;;
70049;SDS011;57391;51.306;22.680;2023-09-18T05:00:21;9.00;;;5.90;;
70049;SDS011;57391;51.306;22.680;2023-09-18T05:02:50;8.50;;;5.10;;
70049;SDS011;57391;51.306;22.680;2023-09-18T05:05:17;7.60;;;4.90;;
70049;SDS011;57391;51.306;22.680;2023-09-18T05:07:44;7.90;;;5.30;;
70049;SDS011;57391;51.306;22.680;2023-09-18T05:10:11;8.20;;;4.80;;
70049;SDS011;57391;51.306;22.680;2023-09-18T05:12:39;7.80;;;5.00;;
70049;SDS011;57391;51.306;22.680;2023-09-18T05:15:07;7.30;;;5.10;;
70049;SDS011;57391;51.306;22.680;2023-09-18T05:17:41;9.90;;;5.60;;
70049;SDS011;57391;51.306;22.680;2023-09-18T05:20:10;8.10;;;5.20;;
70049;SDS011;57391;51.306;22.680;2023-09-18T05:22:39;8.50;;;6.10;;
70049;SDS011;57391;51.306;22.680;2023-09-18T05:25:07;11.50;;;6.60;;
70049;SDS011;57391;51.306;22.680;2023-09-18T05:27:38;10.90;;;6.10;;
70049;SDS011;57391;51.306;22.680;2023-09-18T05:30:12;8.80;;;6.70;;
70049;SDS011;57391;51.306;22.680;2023-09-18T05:32:47;10.90;;;6.80;;
70049;SDS011;57391;51.306;22.680;2023-09-18T05:35:15;10.10;;;7.30;;
70049;SDS011;57391;51.306;22.680;2023-09-18T05:37:43;9.50;;;6.50;;
70049;SDS011;57391;51.306;22.680;2023-09-18T05:40:13;10.30;;;6.80;;
70049;SDS011;57391;51.306;22.680;2023-09-18T05:42:42;11.00;;;7.30;;
70049;SDS011;57391;51.306;22.680;2023-09-18T05:45:14;9.60;;;7.50;;
70049;SDS011;57391;51.306;22.680;2023-09-18T05:47:44;11.70;;;7.80;;
70049;SDS011;57391;51.306;22.680;2023-09-18T05:50:12;10.70;;;7.80;;
70049;SDS011;57391;51.306;22.680;2023-09-18T05:52:44;9.70;;;7.50;;
70049;SDS011;57391;51.306;22.680;2023-09-18T05:55:13;11.70;;;7.40;;
70049;SDS011;57391;51.306;22.680;2023-09-18T05:57:41;10.40;;;7.10;;
70049;SDS011;57391;51.306;22.680;2023-09-18T06:00:08;12.00;;;7.20;;
70049;SDS011;57391;51.306;22.680;2023-09-18T06:02:40;12.70;;;7.60;;
70049;SDS011;57391;51.306;22.680;2023-09-18T06:05:07;11.70;;;7.90;;
70049;SDS011;57391;51.306;22.680;2023-09-18T06:07:37;10.30;;;7.30;;
70049;SDS011;57391;51.306;22.680;2023-09-18T06:10:05;11.30;;;7.50;;
70049;SDS011;57391;51.306;22.680;2023-09-18T06:12:32;10.70;;;7.60;;
70049;SDS011;57391;51.306;22.680;2023-09-18T06:14:59;10.00;;;7.50;;
70049;SDS011;57391;51.306;22.680;2023-09-18T06:17:26;10.50;;;7.30;;
70049;SDS011;57391;51.306;22.680;2023-09-18T06:19:53;11.00;;;7.60;;
70049;SDS011;57391;51.306;22.680;2023-09-18T06:22:20;11.30;;;8.00;;
70049;SDS011;57391;51.306;22.680;2023-09-18T06:24:46;14.20;;;8.50;;
70049;SDS011;57391;51.306;22.680;2023-09-18T06:27:14;13.60;;;7.80;;
70049;SDS011;57391;51.306;22.680;2023-09-18T06:29:41;11.90;;;8.10;;
70049;SDS011;57391;51.306;22.680;2023-09-18T06:32:09;12.50;;;7.70;;
70049;SDS011;57391;51.306;22.680;2023-09-18T06:34:36;13.40;;;8.40;;
70049;SDS011;57391;51.306;22.680;2023-09-18T06:37:03;12.80;;;8.10;;
70049;SDS011;57391;51.306;22.680;2023-09-18T06:39:30;13.80;;;7.70;;
70049;SDS011;57391;51.306;22.680;2023-09-18T06:41:57;13.60;;;8.10;;
70049;SDS011;57391;51.306;22.680;2023-09-18T06:44:24;12.70;;;7.80;;
70049;SDS011;57391;51.306;22.680;2023-09-18T06:46:51;11.00;;;7.80;;
70049;SDS011;57391;51.306;22.680;2023-09-18T06:49:19;11.10;;;7.30;;
70049;SDS011;57391;51.306;22.680;2023-09-18T06:51:47;11.50;;;7.70;;
70049;SDS011;57391;51.306;22.680;2023-09-18T06:54:13;11.60;;;7.80;;
70049;SDS011;57391;51.306;22.680;2023-09-18T06:56:41;10.60;;;7.60;;
70049;SDS011;57391;51.306;22.680;2023-09-18T06:59:10;10.80;;;7.50;;
70049;SDS011;57391;51.306;22.680;2023-09-18T07:01:38;11.60;;;7.70;;
70049;SDS011;57391;51.306;22.680;2023-09-18T07:04:06;11.30;;;8.20;;
70049;SDS011;57391;51.306;22.680;2023-09-18T07:06:33;10.80;;;8.00;;
70049;SDS011;57391;51.306;22.680;2023-09-18T07:09:00;11.40;;;7.70;;
70049;SDS011;57391;51.306;22.680;2023-09-18T07:11:27;12.50;;;8.00;;
70049;SDS011;57391;51.306;22.680;2023-09-18T07:13:54;11.00;;;7.40;;
70049;SDS011;57391;51.306;22.680;2023-09-18T07:16:20;10.50;;;7.80;;
70049;SDS011;57391;51.306;22.680;2023-09-18T07:18:47;10.50;;;7.60;;
70049;SDS011;57391;51.306;22.680;2023-09-18T07:21:14;10.80;;;8.10;;
70049;SDS011;57391;51.306;22.680;2023-09-18T07:23:41;10.90;;;8.00;;
70049;SDS011;57391;51.306;22.680;2023-09-18T07:26:08;11.60;;;8.10;;
70049;SDS011;57391;51.306;22.680;2023-09-18T07:28:34;13.50;;;8.20;;
70049;SDS011;57391;51.306;22.680;2023-09-18T07:31:08;10.00;;;7.50;;
70049;SDS011;57391;51.306;22.680;2023-09-18T07:33:36;10.20;;;7.30;;
70049;SDS011;57391;51.306;22.680;2023-09-18T07:36:03;9.70;;;7.50;;
70049;SDS011;57391;51.306;22.680;2023-09-18T07:38:31;12.10;;;8.00;;
70049;SDS011;57391;51.306;22.680;2023-09-18T07:40:58;10.60;;;8.20;;
70049;SDS011;57391;51.306;22.680;2023-09-18T07:43:25;13.20;;;8.70;;
70049;SDS011;57391;51.306;22.680;2023-09-18T07:45:53;13.00;;;9.00;;
70049;SDS011;57391;51.306;22.680;2023-09-18T07:48:22;11.50;;;7.60;;
70049;SDS011;57391;51.306;22.680;2023-09-18T07:50:49;11.60;;;7.90;;
70049;SDS011;57391;51.306;22.680;2023-09-18T07:53:16;10.70;;;9.00;;
70049;SDS011;57391;51.306;22.680;2023-09-18T07:55:43;10.60;;;8.20;;
70049;SDS011;57391;51.306;22.680;2023-09-18T07:58:10;9.90;;;7.50;;
70049;SDS011;57391;51.306;22.680;2023-09-18T08:00:38;11.30;;;6.90;;
70049;SDS011;57391;51.306;22.680;2023-09-18T08:03:05;11.30;;;8.20;;
70049;SDS011;57391;51.306;22.680;2023-09-18T08:05:32;9.90;;;7.20;;
70049;SDS011;57391;51.306;22.680;2023-09-18T08:07:59;11.90;;;7.90;;
70049;SDS011;57391;51.306;22.680;2023-09-18T08:10:27;11.30;;;8.10;;
70049;SDS011;57391;51.306;22.680;2023-09-18T08:12:53;12.60;;;8.00;;
70049;SDS011;57391;51.306;22.680;2023-09-18T08:15:20;10.90;;;8.00;;
70049;SDS011;57391;51.306;22.680;2023-09-18T08:17:48;10.70;;;7.80;;
70049;SDS011;57391;51.306;22.680;2023-09-18T08:20:16;9.90;;;7.60;;
70049;SDS011;57391;51.306;22.680;2023-09-18T08:22:43;10.70;;;7.70;;
70049;SDS011;57391;51.306;22.680;2023-09-18T08:25:11;10.80;;;8.00;;
70049;SDS011;57391;51.306;22.680;2023-09-18T08:27:39;10.10;;;8.20;;
70049;SDS011;57391;51.306;22.680;2023-09-18T08:30:08;9.40;;;7.00;;
70049;SDS011;57391;51.306;22.680;2023-09-18T08:32:37;10.70;;;7.80;;
70049;SDS011;57391;51.306;22.680;2023-09-18T08:35:06;9.50;;;7.30;;
70049;SDS011;57391;51.306;22.680;2023-09-18T08:37:33;10.00;;;7.50;;
70049;SDS011;57391;51.306;22.680;2023-09-18T08:40:00;11.00;;;7.90;;
70049;SDS011;57391;51.306;22.680;2023-09-18T08:42:34;11.50;;;7.90;;
70049;SDS011;57391;51.306;22.680;2023-09-18T08:45:08;11.70;;;7.50;;
70049;SDS011;57391;51.306;22.680;2023-09-18T08:47:40;10.40;;;7.30;;
70049;SDS011;57391;51.306;22.680;2023-09-18T08:50:11;10.40;;;8.00;;
70049;SDS011;57391;51.306;22.680;2023-09-18T08:52:39;11.10;;;8.20;;
70049;SDS011;57391;51.306;22.680;2023-09-18T08:55:08;9.60;;;7.60;;
70049;SDS011;57391;51.306;22.680;2023-09-18T08:57:36;11.00;;;8.00;;
70049;SDS011;57391;51.306;22.680;2023-09-18T09:00:05;10.30;;;8.10;;
70049;SDS011;57391;51.306;22.680;2023-09-18T09:02:37;9.50;;;7.10;;
70049;SDS011;57391;51.306;22.680;2023-09-18T09:05:05;11.20;;;7.90;;
70049;SDS011;57391;51.306;22.680;2023-09-18T09:07:32;11.20;;;8.20;;
70049;SDS011;57391;51.306;22.680;2023-09-18T09:09:59;9.20;;;7.40;;
70049;SDS011;57391;51.306;22.680;2023-09-18T09:12:52;12.00;;;7.50;;
70049;SDS011;57391;51.306;22.680;2023-09-18T09:15:28;12.30;;;8.30;;
70049;SDS011;57391;51.306;22.680;2023-09-18T09:18:06;9.80;;;7.00;;
70049;SDS011;57391;51.306;22.680;2023-09-18T09:20:37;11.70;;;7.10;;
70049;SDS011;57391;51.306;22.680;2023-09-18T09:23:06;9.00;;;7.00;;
70049;SDS011;57391;51.306;22.680;2023-09-18T09:25:35;9.50;;;6.80;;
70049;SDS011;57391;51.306;22.680;2023-09-18T09:28:06;9.10;;;7.00;;
70049;SDS011;57391;51.306;22.680;2023-09-18T09:30:35;11.20;;;8.00;;
70049;SDS011;57391;51.306;22.680;2023-09-18T09:33:04;8.50;;;6.80;;
70049;SDS011;57391;51.306;22.680;2023-09-18T09:35:34;10.30;;;7.30;;
70049;SDS011;57391;51.306;22.680;2023-09-18T09:38:09;10.70;;;7.40;;
70049;SDS011;57391;51.306;22.680;2023-09-18T09:40:39;9.00;;;7.00;;
70049;SDS011;57391;51.306;22.680;2023-09-18T09:43:11;9.30;;;7.30;;
70049;SDS011;57391;51.306;22.680;2023-09-18T09:45:41;8.40;;;6.60;;
70049;SDS011;57391;51.306;22.680;2023-09-18T09:48:09;8.90;;;6.80;;
70049;SDS011;57391;51.306;22.680;2023-09-18T09:50:47;9.00;;;6.50;;
70049;SDS011;57391;51.306;22.680;2023-09-18T09:53:14;9.20;;;6.80;;
70049;SDS011;57391;51.306;22.680;2023-09-18T09:55:41;8.60;;;6.80;;
70049;SDS011;57391;51.306;22.680;2023-09-18T09:58:10;9.90;;;7.40;;
70049;SDS011;57391;51.306;22.680;2023-09-18T10:00:50;10.00;;;6.50;;
70049;SDS011;57391;51.306;22.680;2023-09-18T10:03:22;9.60;;;7.00;;
70049;SDS011;57391;51.306;22.680;2023-09-18T10:05:52;7.30;;;5.90;;
70049;SDS011;57391;51.306;22.680;2023-09-18T10:08:23;9.20;;;7.20;;
70049;SDS011;57391;51.306;22.680;2023-09-18T10:11:00;9.70;;;6.60;;
70049;SDS011;57391;51.306;22.680;2023-09-18T10:14:01;9.00;;;6.90;;
70049;SDS011;57391;51.306;22.680;2023-09-18T10:16:34;10.20;;;6.90;;
70049;SDS011;57391;51.306;22.680;2023-09-18T10:22:01;9.30;;;6.40;;
70049;SDS011;57391;51.306;22.680;2023-09-18T10:24:45;7.90;;;5.40;;
70049;SDS011;57391;51.306;22.680;2023-09-18T10:27:17;8.60;;;6.30;;
70049;SDS011;57391;51.306;22.680;2023-09-18T10:29:49;8.10;;;6.30;;
70049;SDS011;57391;51.306;22.680;2023-09-18T10:32:18;8.90;;;7.00;;
70049;SDS011;57391;51.306;22.680;2023-09-18T10:34:47;9.40;;;7.00;;
70049;SDS011;57391;51.306;22.680;2023-09-18T10:37:15;9.40;;;6.70;;
70049;SDS011;57391;51.306;22.680;2023-09-18T10:39:42;12.40;;;6.90;;
70049;SDS011;57391;51.306;22.680;2023-09-18T10:42:12;8.70;;;6.50;;
70049;SDS011;57391;51.306;22.680;2023-09-18T10:44:41;10.60;;;6.80;;
70049;SDS011;57391;51.306;22.680;2023-09-18T10:47:10;9.00;;;6.60;;
70049;SDS011;57391;51.306;22.680;2023-09-18T10:49:38;11.40;;;7.00;;
70049;SDS011;57391;51.306;22.680;2023-09-18T10:52:05;9.20;;;6.70;;
70049;SDS011;57391;51.306;22.680;2023-09-18T10:54:38;9.60;;;7.10;;
70049;SDS011;57391;51.306;22.680;2023-09-18T10:57:06;10.90;;;6.70;;
70049;SDS011;57391;51.306;22.680;2023-09-18T10:59:33;9.40;;;7.00;;
70049;SDS011;57391;51.306;22.680;2023-09-18T11:02:03;9.00;;;6.70;;
70049;SDS011;57391;51.306;22.680;2023-09-18T11:04:33;11.30;;;6.80;;
70049;SDS011;57391;51.306;22.680;2023-09-18T11:07:03;13.20;;;7.00;;
70049;SDS011;57391;51.306;22.680;2023-09-18T11:09:45;11.50;;;7.00;;
70049;SDS011;57391;51.306;22.680;2023-09-18T11:12:15;11.40;;;7.30;;
70049;SDS011;57391;51.306;22.680;2023-09-18T11:14:56;9.90;;;6.60;;
70049;SDS011;57391;51.306;22.680;2023-09-18T11:17:33;12.10;;;6.90;;
70049;SDS011;57391;51.306;22.680;2023-09-18T11:20:17;9.50;;;7.00;;
70049;SDS011;57391;51.306;22.680;2023-09-18T11:25:42;8.30;;;6.50;;
70049;SDS011;57391;51.306;22.680;2023-09-18T11:28:22;8.70;;;6.50;;
70049;SDS011;57391;51.306;22.680;2023-09-18T11:30:52;11.20;;;6.90;;
70049;SDS011;57391;51.306;22.680;2023-09-18T11:33:36;7.80;;;6.20;;
70049;SDS011;57391;51.306;22.680;2023-09-18T11:36:14;8.80;;;6.00;;
70049;SDS011;57391;51.306;22.680;2023-09-18T11:38:58;10.60;;;6.20;;
70049;SDS011;57391;51.306;22.680;2023-09-18T11:41:32;8.60;;;6.50;;
70049;SDS011;57391;51.306;22.680;2023-09-18T11:46:45;8.00;;;6.10;;
70049;SDS011;57391;51.306;22.680;2023-09-18T11:49:19;9.10;;;6.70;;
70049;SDS011;57391;51.306;22.680;2023-09-18T11:52:09;9.10;;;6.60;;
70049;SDS011;57391;51.306;22.680;2023-09-18T11:54:39;8.70;;;6.70;;
70049;SDS011;57391;51.306;22.680;2023-09-18T11:57:07;8.60;;;6.30;;
70049;SDS011;57391;51.306;22.680;2023-09-18T11:59:40;9.20;;;6.10;;
70049;SDS011;57391;51.306;22.680;2023-09-18T12:02:09;9.10;;;5.80;;
70049;SDS011;57391;51.306;22.680;2023-09-18T12:04:38;8.10;;;6.10;;
70049;SDS011;57391;51.306;22.680;2023-09-18T12:07:06;7.90;;;5.80;;
70049;SDS011;57391;51.306;22.680;2023-09-18T12:09:36;8.50;;;6.00;;
70049;SDS011;57391;51.306;22.680;2023-09-18T12:12:05;9.20;;;5.90;;
70049;SDS011;57391;51.306;22.680;2023-09-18T12:14:34;8.70;;;6.00;;
70049;SDS011;57391;51.306;22.680;2023-09-18T12:17:02;9.30;;;5.80;;
70049;SDS011;57391;51.306;22.680;2023-09-18T12:19:30;8.80;;;6.50;;
70049;SDS011;57391;51.306;22.680;2023-09-18T12:21:57;8.50;;;5.80;;
70049;SDS011;57391;51.306;22.680;2023-09-18T12:24:24;8.50;;;5.60;;
70049;SDS011;57391;51.306;22.680;2023-09-18T12:26:53;8.40;;;5.20;;
70049;SDS011;57391;51.306;22.680;2023-09-18T12:29:21;7.80;;;5.90;;
70049;SDS011;57391;51.306;22.680;2023-09-18T12:31:48;8.60;;;5.60;;
70049;SDS011;57391;51.306;22.680;2023-09-18T12:34:21;9.10;;;5.70;;
70049;SDS011;57391;51.306;22.680;2023-09-18T12:36:50;8.30;;;5.70;;
70049;SDS011;57391;51.306;22.680;2023-09-18T12:39:18;8.30;;;5.20;;
70049;SDS011;57391;51.306;22.680;2023-09-18T12:41:47;7.80;;;5.20;;
70049;SDS011;57391;51.306;22.680;2023-09-18T12:44:15;8.50;;;5.60;;
70049;SDS011;57391;51.306;22.680;2023-09-18T12:46:43;7.90;;;5.60;;
70049;SDS011;57391;51.306;22.680;2023-09-18T12:52:01;8.70;;;5.50;;
70049;SDS011;57391;51.306;22.680;2023-09-18T12:57:10;8.40;;;5.50;;
70049;SDS011;57391;51.306;22.680;2023-09-18T12:59:37;6.70;;;5.00;;
70049;SDS011;57391;51.306;22.680;2023-09-18T13:02:05;7.60;;;5.50;;
70049;SDS011;57391;51.306;22.680;2023-09-18T13:04:33;8.90;;;5.70;;
70049;SDS011;57391;51.306;22.680;2023-09-18T13:07:13;8.50;;;5.80;;
70049;SDS011;57391;51.306;22.680;2023-09-18T13:09:41;8.20;;;5.20;;
70049;SDS011;57391;51.306;22.680;2023-09-18T13:12:09;7.70;;;5.60;;
70049;SDS011;57391;51.306;22.680;2023-09-18T13:15:02;9.00;;;5.40;;
70049;SDS011;57391;51.306;22.680;2023-09-18T13:17:43;7.70;;;5.00;;
70049;SDS011;57391;51.306;22.680;2023-09-18T13:20:16;7.60;;;5.10;;
70049;SDS011;57391;51.306;22.680;2023-09-18T13:22:55;8.80;;;5.60;;
70049;SDS011;57391;51.306;22.680;2023-09-18T13:25:29;9.80;;;5.60;;
70049;SDS011;57391;51.306;22.680;2023-09-18T13:27:58;8.50;;;5.80;;
70049;SDS011;57391;51.306;22.680;2023-09-18T13:30:26;9.50;;;5.50;;
70049;SDS011;57391;51.306;22.680;2023-09-18T13:33:02;7.20;;;5.50;;
70049;SDS011;57391;51.306;22.680;2023-09-18T13:35:30;8.20;;;5.60;;
70049;SDS011;57391;51.306;22.680;2023-09-18T13:37:57;7.60;;;5.60;;
70049;SDS011;57391;51.306;22.680;2023-09-18T13:40:24;9.00;;;5.30;;
70049;SDS011;57391;51.306;22.680;2023-09-18T13:42:51;8.60;;;5.40;;
70049;SDS011;57391;51.306;22.680;2023-09-18T13:45:18;7.70;;;5.50;;
70049;SDS011;57391;51.306;22.680;2023-09-18T13:47:45;7.10;;;5.20;;
70049;SDS011;57391;51.306;22.680;2023-09-18T13:50:12;7.70;;;5.50;;
70049;SDS011;57391;51.306;22.680;2023-09-18T13:52:40;10.30;;;5.70;;
70049;SDS011;57391;51.306;22.680;2023-09-18T13:55:07;7.70;;;6.00;;
70049;SDS011;57391;51.306;22.680;2023-09-18T13:57:35;8.40;;;5.80;;
70049;SDS011;57391;51.306;22.680;2023-09-18T14:00:03;7.50;;;5.70;;
70049;SDS011;57391;51.306;22.680;2023-09-18T14:02:40;8.00;;;5.80;;
70049;SDS011;57391;51.306;22.680;2023-09-18T14:05:09;9.40;;;6.10;;
70049;SDS011;57391;51.306;22.680;2023-09-18T14:07:37;10.00;;;7.20;;
70049;SDS011;57391;51.306;22.680;2023-09-18T14:10:08;9.30;;;5.80;;
70049;SDS011;57391;51.306;22.680;2023-09-18T14:12:37;8.00;;;5.30;;
70049;SDS011;57391;51.306;22.680;2023-09-18T14:15:06;8.20;;;5.80;;
70049;SDS011;57391;51.306;22.680;2023-09-18T14:17:35;8.30;;;5.70;;
70049;SDS011;57391;51.306;22.680;2023-09-18T14:20:03;7.50;;;5.20;;
70049;SDS011;57391;51.306;22.680;2023-09-18T14:22:37;9.30;;;5.90;;
70049;SDS011;57391;51.306;22.680;2023-09-18T14:25:04;9.70;;;5.70;;
70049;SDS011;57391;51.306;22.680;2023-09-18T14:27:33;7.70;;;5.70;;
70049;SDS011;57391;51.306;22.680;2023-09-18T14:30:02;8.50;;;5.40;;
70049;SDS011;57391;51.306;22.680;2023-09-18T14:32:33;7.90;;;5.90;;
70049;SDS011;57391;51.306;22.680;2023-09-18T14:35:04;9.50;;;6.10;;
70049;SDS011;57391;51.306;22.680;2023-09-18T14:37:34;8.30;;;5.50;;
70049;SDS011;57391;51.306;22.680;2023-09-18T14:40:03;9.00;;;5.90;;
70049;SDS011;57391;51.306;22.680;2023-09-18T14:42:30;8.90;;;6.10;;
70049;SDS011;57391;51.306;22.680;2023-09-18T14:44:57;8.30;;;5.70;;
70049;SDS011;57391;51.306;22.680;2023-09-18T14:47:24;9.00;;;6.10;;
70049;SDS011;57391;51.306;22.680;2023-09-18T14:49:51;9.40;;;6.10;;
70049;SDS011;57391;51.306;22.680;2023-09-18T14:52:18;9.30;;;6.20;;
70049;SDS011;57391;51.306;22.680;2023-09-18T14:54:47;10.10;;;6.40;;
70049;SDS011;57391;51.306;22.680;2023-09-18T14:57:15;9.50;;;6.40;;
70049;SDS011;57391;51.306;22.680;2023-09-18T14:59:41;8.30;;;5.80;;